sensor_id;sensor_type;location;lat;lon;timestamp;pressure;altitude;pressure_sealevel;temperature;humidity
22580;BME280;11456;47.030;15.396;2022-10-15T00:00:12;97575.16;;;12.40;97.40
22580;BME280;11456;47.030;15.396;2022-10-15T00:02:38;97578.81;;;12.23;97.77
22580;BME280;11456;47.030;15.396;2022-10-15T00:05:05;97569.03;;;12.14;97.93
22580;BME280;11456;47.030;15.396;2022-10-15T00:07:32;97580.47;;;12.08;98.49
22580;BME280;11456;47.030;15.396;2022-10-15T00:09:58;97582.19;;;12.09;97.71
22580;BME280;11456;47.030;15.396;2022-10-15T00:12:25;97584.19;;;12.07;97.92
22580;BME280;11456;47.030;15.396;2022-10-15T00:14:51;97579.94;;;12.04;98.05
22580;BME280;11456;47.030;15.396;2022-10-15T00:17:17;97585.13;;;11.89;97.92
22580;BME280;11456;47.030;15.396;2022-10-15T00:19:44;97580.09;;;11.94;98.04
22580;BME280;11456;47.030;15.396;2022-10-15T00:22:11;97580.09;;;11.94;96.93
22580;BME280;11456;47.030;15.396;2022-10-15T00:24:37;97590.56;;;11.72;97.49
22580;BME280;11456;47.030;15.396;2022-10-15T00:27:04;97582.97;;;11.67;98.67
22580;BME280;11456;47.030;15.396;2022-10-15T00:29:30;97577.25;;;11.70;98.04
22580;BME280;11456;47.030;15.396;2022-10-15T00:31:57;97581.91;;;11.60;98.15
22580;BME280;11456;47.030;15.396;2022-10-15T00:34:23;97571.00;;;11.70;97.63
22580;BME280;11456;47.030;15.396;2022-10-15T00:36:50;97574.41;;;11.46;97.38
22580;BME280;11456;47.030;15.396;2022-10-15T00:39:16;97571.09;;;11.52;98.76
22580;BME280;11456;47.030;15.396;2022-10-15T00:41:43;97559.03;;;11.64;98.17
22580;BME280;11456;47.030;15.396;2022-10-15T00:49:32;97549.22;;;11.63;98.33
22580;BME280;11456;47.030;15.396;2022-10-15T00:52:08;97550.94;;;11.64;99.13
22580;BME280;11456;47.030;15.396;2022-10-15T00:54:36;97551.47;;;11.42;98.69
22580;BME280;11456;47.030;15.396;2022-10-15T00:57:05;97546.50;;;11.55;98.92
22580;BME280;11456;47.030;15.396;2022-10-15T00:59:32;97549.22;;;11.63;98.49
22580;BME280;11456;47.030;15.396;2022-10-15T01:02:00;97544.13;;;11.52;97.55
22580;BME280;11456;47.030;15.396;2022-10-15T01:04:27;97545.16;;;11.59;97.53
22580;BME280;11456;47.030;15.396;2022-10-15T01:06:54;97540.81;;;11.66;97.52
22580;BME280;11456;47.030;15.396;2022-10-15T01:09:21;97541.19;;;11.71;98.53
22580;BME280;11456;47.030;15.396;2022-10-15T01:11:48;97529.84;;;11.68;98.02
22580;BME280;11456;47.030;15.396;2022-10-15T01:21:49;97518.03;;;11.60;98.77
22580;BME280;11456;47.030;15.396;2022-10-15T01:30:12;97513.53;;;11.09;100.00
22580;BME280;11456;47.030;15.396;2022-10-15T01:32:46;97510.47;;;11.30;99.87
22580;BME280;11456;47.030;15.396;2022-10-15T01:38:15;97517.34;;;11.24;99.56
22580;BME280;11456;47.030;15.396;2022-10-15T01:40:46;97507.63;;;11.32;99.95
22580;BME280;11456;47.030;15.396;2022-10-15T01:43:15;97510.91;;;11.17;100.00
22580;BME280;11456;47.030;15.396;2022-10-15T01:46:06;97506.78;;;11.05;100.00
22580;BME280;11456;47.030;15.396;2022-10-15T01:48:44;97503.81;;;11.16;100.00
22580;BME280;11456;47.030;15.396;2022-10-15T01:51:11;97497.09;;;11.20;100.00
22580;BME280;11456;47.030;15.396;2022-10-15T01:53:40;97497.34;;;11.35;100.00
22580;BME280;11456;47.030;15.396;2022-10-15T01:56:08;97493.34;;;11.39;100.00
22580;BME280;11456;47.030;15.396;2022-10-15T01:58:41;97497.13;;;11.29;100.00
22580;BME280;11456;47.030;15.396;2022-10-15T02:01:08;97490.59;;;11.31;100.00
22580;BME280;11456;47.030;15.396;2022-10-15T02:03:45;97490.84;;;11.54;100.00
22580;BME280;11456;47.030;15.396;2022-10-15T02:06:12;97490.84;;;11.54;100.00
22580;BME280;11456;47.030;15.396;2022-10-15T02:11:18;97485.19;;;11.73;100.00
22580;BME280;11456;47.030;15.396;2022-10-15T02:16:22;97477.09;;;11.73;100.00
22580;BME280;11456;47.030;15.396;2022-10-15T02:18:51;97478.81;;;11.74;100.00
22580;BME280;11456;47.030;15.396;2022-10-15T02:21:21;97474.06;;;11.68;100.00
22580;BME280;11456;47.030;15.396;2022-10-15T02:26:21;97468.16;;;11.73;100.00
22580;BME280;11456;47.030;15.396;2022-10-15T02:28:52;97463.53;;;11.83;100.00
22580;BME280;11456;47.030;15.396;2022-10-15T02:31:20;97460.63;;;11.84;100.00
22580;BME280;11456;47.030;15.396;2022-10-15T02:33:48;97460.69;;;12.00;100.00
22580;BME280;11456;47.030;15.396;2022-10-15T02:36:18;97452.09;;;11.97;100.00
22580;BME280;11456;47.030;15.396;2022-10-15T02:38:44;97450.56;;;11.94;100.00
22580;BME280;11456;47.030;15.396;2022-10-15T02:41:11;97443.66;;;12.00;100.00
22580;BME280;11456;47.030;15.396;2022-10-15T02:43:39;97441.97;;;12.07;100.00
22580;BME280;11456;47.030;15.396;2022-10-15T02:46:06;97438.75;;;11.95;100.00
22580;BME280;11456;47.030;15.396;2022-10-15T02:48:35;97440.06;;;11.91;100.00
22580;BME280;11456;47.030;15.396;2022-10-15T02:51:02;97442.28;;;11.96;100.00
22580;BME280;11456;47.030;15.396;2022-10-15T02:53:30;97443.31;;;12.03;100.00
22580;BME280;11456;47.030;15.396;2022-10-15T02:55:57;97444.13;;;12.03;100.00
22580;BME280;11456;47.030;15.396;2022-10-15T02:58:23;97445.69;;;12.06;100.00
22580;BME280;11456;47.030;15.396;2022-10-15T03:00:51;97448.88;;;12.01;100.00
22580;BME280;11456;47.030;15.396;2022-10-15T03:03:18;97444.13;;;12.03;100.00
22580;BME280;11456;47.030;15.396;2022-10-15T03:05:45;97444.31;;;11.94;100.00
22580;BME280;11456;47.030;15.396;2022-10-15T03:08:11;97431.63;;;11.86;100.00
22580;BME280;11456;47.030;15.396;2022-10-15T03:10:38;97427.63;;;11.90;100.00
22580;BME280;11456;47.030;15.396;2022-10-15T03:13:05;97421.84;;;11.85;100.00
22580;BME280;11456;47.030;15.396;2022-10-15T03:15:38;97425.22;;;11.79;100.00
22580;BME280;11456;47.030;15.396;2022-10-15T03:18:05;97423.38;;;11.88;100.00
22580;BME280;11456;47.030;15.396;2022-10-15T03:20:33;97434.31;;;11.78;100.00
22580;BME280;11456;47.030;15.396;2022-10-15T03:23:00;97425.22;;;11.79;100.00
22580;BME280;11456;47.030;15.396;2022-10-15T03:25:29;97421.78;;;11.61;100.00
22580;BME280;11456;47.030;15.396;2022-10-15T03:28:00;97431.59;;;11.70;100.00
22580;BME280;11456;47.030;15.396;2022-10-15T03:30:34;97428.03;;;11.70;100.00
22580;BME280;11456;47.030;15.396;2022-10-15T03:33:01;97428.19;;;11.68;100.00
22580;BME280;11456;47.030;15.396;2022-10-15T03:35:28;97417.13;;;11.79;100.00
22580;BME280;11456;47.030;15.396;2022-10-15T03:37:54;97420.34;;;11.83;100.00
22580;BME280;11456;47.030;15.396;2022-10-15T03:40:21;97420.34;;;11.91;100.00
22580;BME280;11456;47.030;15.396;2022-10-15T03:42:51;97416.13;;;11.88;100.00
22580;BME280;11456;47.030;15.396;2022-10-15T03:45:22;97429.09;;;11.77;100.00
22580;BME280;11456;47.030;15.396;2022-10-15T03:48:02;97423.63;;;11.60;100.00
22580;BME280;11456;47.030;15.396;2022-10-15T03:50:32;97419.88;;;11.45;100.00
22580;BME280;11456;47.030;15.396;2022-10-15T03:53:02;97429.13;;;11.43;100.00
22580;BME280;11456;47.030;15.396;2022-10-15T03:55:28;97422.22;;;11.48;100.00
22580;BME280;11456;47.030;15.396;2022-10-15T03:57:55;97421.56;;;11.54;100.00
22580;BME280;11456;47.030;15.396;2022-10-15T04:00:21;97423.09;;;11.49;100.00
22580;BME280;11456;47.030;15.396;2022-10-15T04:02:54;97423.34;;;11.30;100.00
22580;BME280;11456;47.030;15.396;2022-10-15T04:05:24;97428.09;;;11.36;100.00
22580;BME280;11456;47.030;15.396;2022-10-15T04:07:56;97421.16;;;11.33;100.00
22580;BME280;11456;47.030;15.396;2022-10-15T04:10:24;97427.78;;;11.47;100.00
22580;BME280;11456;47.030;15.396;2022-10-15T04:12:51;97425.47;;;11.52;100.00
22580;BME280;11456;47.030;15.396;2022-10-15T04:15:17;97429.97;;;11.43;100.00
22580;BME280;11456;47.030;15.396;2022-10-15T04:17:53;97444.63;;;11.41;100.00
22580;BME280;11456;47.030;15.396;2022-10-15T04:20:21;97438.56;;;11.39;100.00
22580;BME280;11456;47.030;15.396;2022-10-15T04:22:48;97439.25;;;11.49;100.00
22580;BME280;11456;47.030;15.396;2022-10-15T04:25:15;97431.47;;;11.46;100.00
22580;BME280;11456;47.030;15.396;2022-10-15T04:27:43;97439.56;;;11.46;100.00
22580;BME280;11456;47.030;15.396;2022-10-15T04:30:14;97431.81;;;11.43;100.00
22580;BME280;11456;47.030;15.396;2022-10-15T04:32:45;97434.56;;;11.59;100.00
22580;BME280;11456;47.030;15.396;2022-10-15T04:35:12;97436.25;;;11.60;100.00
22580;BME280;11456;47.030;15.396;2022-10-15T04:37:50;97433.88;;;11.49;100.00
22580;BME280;11456;47.030;15.396;2022-10-15T04:40:16;97434.53;;;11.43;100.00
22580;BME280;11456;47.030;15.396;2022-10-15T04:42:44;97432.53;;;11.45;100.00
22580;BME280;11456;47.030;15.396;2022-10-15T04:45:11;97439.72;;;11.36;100.00
22580;BME280;11456;47.030;15.396;2022-10-15T04:47:43;97433.91;;;11.57;100.00
22580;BME280;11456;47.030;15.396;2022-10-15T04:50:14;97432.56;;;11.61;100.00
22580;BME280;11456;47.030;15.396;2022-10-15T04:53:00;97435.28;;;11.69;100.00
22580;BME280;11456;47.030;15.396;2022-10-15T04:55:31;97430.09;;;11.76;100.00
22580;BME280;11456;47.030;15.396;2022-10-15T04:57:59;97434.56;;;11.59;100.00
22580;BME280;11456;47.030;15.396;2022-10-15T05:00:29;97430.69;;;11.53;100.00
22580;BME280;11456;47.030;15.396;2022-10-15T05:02:55;97425.28;;;11.53;100.00
22580;BME280;11456;47.030;15.396;2022-10-15T05:05:32;97425.81;;;11.57;100.00
22580;BME280;11456;47.030;15.396;2022-10-15T05:08:01;97422.44;;;11.55;100.00
22580;BME280;11456;47.030;15.396;2022-10-15T05:10:32;97422.16;;;11.74;100.00
22580;BME280;11456;47.030;15.396;2022-10-15T05:13:02;97424.16;;;11.72;100.00
22580;BME280;11456;47.030;15.396;2022-10-15T05:15:32;97417.41;;;11.68;100.00
22580;BME280;11456;47.030;15.396;2022-10-15T05:18:00;97413.91;;;11.76;100.00
22580;BME280;11456;47.030;15.396;2022-10-15T05:20:36;97416.13;;;11.80;100.00
22580;BME280;11456;47.030;15.396;2022-10-15T05:23:02;97415.13;;;11.89;100.00
22580;BME280;11456;47.030;15.396;2022-10-15T05:25:32;97411.69;;;11.71;100.00
22580;BME280;11456;47.030;15.396;2022-10-15T05:27:59;97409.22;;;11.86;100.00
22580;BME280;11456;47.030;15.396;2022-10-15T05:30:25;97413.34;;;11.72;100.00
22580;BME280;11456;47.030;15.396;2022-10-15T05:32:54;97417.47;;;11.92;100.00
22580;BME280;11456;47.030;15.396;2022-10-15T05:35:21;97424.22;;;11.80;100.00
22580;BME280;11456;47.030;15.396;2022-10-15T05:37:58;97424.91;;;11.82;100.00
22580;BME280;11456;47.030;15.396;2022-10-15T05:40:24;97419.88;;;11.95;100.00
22580;BME280;11456;47.030;15.396;2022-10-15T05:43:03;97417.13;;;11.87;100.00
22580;BME280;11456;47.030;15.396;2022-10-15T05:45:30;97421.88;;;11.93;100.00
22580;BME280;11456;47.030;15.396;2022-10-15T05:48:01;97419.84;;;12.03;100.00
22580;BME280;11456;47.030;15.396;2022-10-15T05:50:28;97415.47;;;12.19;100.00
22580;BME280;11456;47.030;15.396;2022-10-15T05:52:56;97422.91;;;12.00;100.00
22580;BME280;11456;47.030;15.396;2022-10-15T05:55:29;97432.34;;;11.96;100.00
22580;BME280;11456;47.030;15.396;2022-10-15T05:57:59;97424.25;;;12.04;100.00
22580;BME280;11456;47.030;15.396;2022-10-15T06:00:25;97429.63;;;12.04;100.00
22580;BME280;11456;47.030;15.396;2022-10-15T06:02:52;97432.31;;;11.80;100.00
22580;BME280;11456;47.030;15.396;2022-10-15T06:05:19;97435.03;;;12.04;100.00
22580;BME280;11456;47.030;15.396;2022-10-15T06:07:45;97431.00;;;12.09;100.00
22580;BME280;11456;47.030;15.396;2022-10-15T06:10:12;97436.41;;;12.09;100.00
22580;BME280;11456;47.030;15.396;2022-10-15T06:12:38;97429.66;;;12.21;100.00
22580;BME280;11456;47.030;15.396;2022-10-15T06:15:05;97431.00;;;12.25;100.00
22580;BME280;11456;47.030;15.396;2022-10-15T06:17:32;97434.22;;;12.44;100.00
22580;BME280;11456;47.030;15.396;2022-10-15T06:19:58;97442.50;;;12.35;100.00
22580;BME280;11456;47.030;15.396;2022-10-15T06:22:25;97450.09;;;12.15;100.00
22580;BME280;11456;47.030;15.396;2022-10-15T06:24:51;97457.31;;;12.23;100.00
22580;BME280;11456;47.030;15.396;2022-10-15T06:27:19;97455.97;;;12.11;100.00
22580;BME280;11456;47.030;15.396;2022-10-15T06:29:47;97452.63;;;12.33;100.00
22580;BME280;11456;47.030;15.396;2022-10-15T06:32:13;97460.38;;;12.20;100.00
22580;BME280;11456;47.030;15.396;2022-10-15T06:34:41;97461.72;;;12.32;100.00
22580;BME280;11456;47.030;15.396;2022-10-15T06:37:07;97449.25;;;12.39;100.00
22580;BME280;11456;47.030;15.396;2022-10-15T06:39:34;97464.25;;;12.50;100.00
22580;BME280;11456;47.030;15.396;2022-10-15T06:42:00;97463.25;;;12.51;100.00
22580;BME280;11456;47.030;15.396;2022-10-15T06:44:36;97469.47;;;12.75;100.00
22580;BME280;11456;47.030;15.396;2022-10-15T06:47:03;97471.19;;;12.84;100.00
22580;BME280;11456;47.030;15.396;2022-10-15T06:49:29;97463.59;;;12.80;100.00
22580;BME280;11456;47.030;15.396;2022-10-15T06:51:57;97479.44;;;12.83;100.00
22580;BME280;11456;47.030;15.396;2022-10-15T06:54:29;97466.72;;;13.08;100.00
22580;BME280;11456;47.030;15.396;2022-10-15T06:56:55;97465.03;;;13.07;100.00
22580;BME280;11456;47.030;15.396;2022-10-15T06:59:22;97465.25;;;12.81;100.00
22580;BME280;11456;47.030;15.396;2022-10-15T07:01:48;97469.97;;;13.03;100.00
22580;BME280;11456;47.030;15.396;2022-10-15T07:04:15;97466.41;;;13.11;100.00
22580;BME280;11456;47.030;15.396;2022-10-15T07:06:41;97467.09;;;13.05;100.00
22580;BME280;11456;47.030;15.396;2022-10-15T07:09:08;97474.00;;;13.23;100.00
22580;BME280;11456;47.030;15.396;2022-10-15T07:11:34;97479.22;;;13.25;100.00
22580;BME280;11456;47.030;15.396;2022-10-15T07:14:00;97475.28;;;13.44;100.00
22580;BME280;11456;47.030;15.396;2022-10-15T07:16:27;97481.91;;;13.25;100.00
22580;BME280;11456;47.030;15.396;2022-10-15T07:18:54;97487.69;;;13.30;100.00
22580;BME280;11456;47.030;15.396;2022-10-15T07:21:20;97471.09;;;13.72;100.00
22580;BME280;11456;47.030;15.396;2022-10-15T07:23:47;97476.44;;;13.49;99.18
22580;BME280;11456;47.030;15.396;2022-10-15T07:26:13;97482.63;;;13.03;100.00
22580;BME280;11456;47.030;15.396;2022-10-15T07:28:40;97486.00;;;13.21;100.00
22580;BME280;11456;47.030;15.396;2022-10-15T07:31:06;97495.78;;;13.06;100.00
22580;BME280;11456;47.030;15.396;2022-10-15T07:33:33;97493.81;;;12.75;100.00
22580;BME280;11456;47.030;15.396;2022-10-15T07:36:03;97498.53;;;12.98;100.00
22580;BME280;11456;47.030;15.396;2022-10-15T07:38:31;97508.50;;;12.89;100.00
22580;BME280;11456;47.030;15.396;2022-10-15T07:40:58;97504.09;;;13.04;100.00
22580;BME280;11456;47.030;15.396;2022-10-15T07:43:25;97500.88;;;13.17;100.00
22580;BME280;11456;47.030;15.396;2022-10-15T07:45:52;97506.09;;;13.35;100.00
22580;BME280;11456;47.030;15.396;2022-10-15T07:48:19;97508.47;;;13.13;100.00
22580;BME280;11456;47.030;15.396;2022-10-15T07:50:45;97505.78;;;12.89;100.00
22580;BME280;11456;47.030;15.396;2022-10-15T07:53:12;97488.31;;;13.40;100.00
22580;BME280;11456;47.030;15.396;2022-10-15T07:55:38;97490.34;;;13.38;100.00
22580;BME280;11456;47.030;15.396;2022-10-15T07:58:05;97490.72;;;13.27;100.00
22580;BME280;11456;47.030;15.396;2022-10-15T08:00:33;97481.88;;;13.41;100.00
22580;BME280;11456;47.030;15.396;2022-10-15T08:02:59;97487.28;;;13.49;100.00
22580;BME280;11456;47.030;15.396;2022-10-15T08:05:26;97481.31;;;13.62;100.00
22580;BME280;11456;47.030;15.396;2022-10-15T08:07:52;97483.59;;;13.34;100.00
22580;BME280;11456;47.030;15.396;2022-10-15T08:10:19;97474.66;;;13.73;100.00
22580;BME280;11456;47.030;15.396;2022-10-15T08:12:45;97487.63;;;13.85;100.00
22580;BME280;11456;47.030;15.396;2022-10-15T08:15:12;97483.47;;;13.67;100.00
22580;BME280;11456;47.030;15.396;2022-10-15T08:17:38;97489.22;;;13.63;100.00
22580;BME280;11456;47.030;15.396;2022-10-15T08:20:05;97490.75;;;13.97;100.00
22580;BME280;11456;47.030;15.396;2022-10-15T08:22:32;97486.31;;;14.04;100.00
22580;BME280;11456;47.030;15.396;2022-10-15T08:24:58;97489.78;;;13.90;100.00
22580;BME280;11456;47.030;15.396;2022-10-15T08:27:25;97493.16;;;13.92;100.00
22580;BME280;11456;47.030;15.396;2022-10-15T08:29:55;97499.19;;;14.02;100.00
22580;BME280;11456;47.030;15.396;2022-10-15T08:32:22;97493.25;;;14.07;100.00
22580;BME280;11456;47.030;15.396;2022-10-15T08:34:48;97489.16;;;13.80;100.00
22580;BME280;11456;47.030;15.396;2022-10-15T08:37:15;97489.34;;;13.78;100.00
22580;BME280;11456;47.030;15.396;2022-10-15T08:39:41;97490.91;;;13.64;100.00
22580;BME280;11456;47.030;15.396;2022-10-15T08:42:13;97491.50;;;13.83;100.00
22580;BME280;11456;47.030;15.396;2022-10-15T08:44:53;97487.75;;;13.92;100.00
22580;BME280;11456;47.030;15.396;2022-10-15T08:47:25;97487.47;;;13.79;100.00
22580;BME280;11456;47.030;15.396;2022-10-15T08:49:54;97498.59;;;13.92;100.00
22580;BME280;11456;47.030;15.396;2022-10-15T08:52:42;97502.47;;;13.89;100.00
22580;BME280;11456;47.030;15.396;2022-10-15T08:55:17;97508.84;;;13.65;100.00
22580;BME280;11456;47.030;15.396;2022-10-15T09:00:20;97494.59;;;13.80;100.00
22580;BME280;11456;47.030;15.396;2022-10-15T09:10:49;97490.56;;;14.29;100.00
22580;BME280;11456;47.030;15.396;2022-10-15T09:15:48;97492.09;;;14.32;100.00
22580;BME280;11456;47.030;15.396;2022-10-15T09:18:17;97490.38;;;14.62;100.00
22580;BME280;11456;47.030;15.396;2022-10-15T09:20:45;97491.44;;;14.75;98.83
22580;BME280;11456;47.030;15.396;2022-10-15T09:23:15;97493.47;;;14.73;98.68
22580;BME280;11456;47.030;15.396;2022-10-15T09:25:42;97497.25;;;14.87;98.40
22580;BME280;11456;47.030;15.396;2022-10-15T09:28:12;97508.16;;;15.02;95.97
22580;BME280;11456;47.030;15.396;2022-10-15T09:30:41;97514.47;;;14.57;98.81
22580;BME280;11456;47.030;15.396;2022-10-15T09:33:29;97518.50;;;14.98;95.72
22580;BME280;11456;47.030;15.396;2022-10-15T09:36:10;97509.97;;;14.87;97.58
22580;BME280;11456;47.030;15.396;2022-10-15T09:44:07;97504.16;;;15.27;96.14
22580;BME280;11456;47.030;15.396;2022-10-15T09:46:44;97499.63;;;15.57;93.40
22580;BME280;11456;47.030;15.396;2022-10-15T09:49:19;97511.50;;;15.56;94.35
22580;BME280;11456;47.030;15.396;2022-10-15T09:57:00;97503.47;;;15.77;94.01
22580;BME280;11456;47.030;15.396;2022-10-15T09:59:26;97500.47;;;15.72;95.61
22580;BME280;11456;47.030;15.396;2022-10-15T10:02:03;97500.75;;;15.62;93.77
22580;BME280;11456;47.030;15.396;2022-10-15T10:04:31;97508.88;;;15.77;92.47
22580;BME280;11456;47.030;15.396;2022-10-15T10:07:01;97507.31;;;15.53;93.27
22580;BME280;11456;47.030;15.396;2022-10-15T10:09:30;97505.84;;;16.01;92.13
22580;BME280;11456;47.030;15.396;2022-10-15T10:12:00;97500.38;;;15.80;91.87
22580;BME280;11456;47.030;15.396;2022-10-15T10:14:41;97503.09;;;15.80;92.89
22580;BME280;11456;47.030;15.396;2022-10-15T10:19:36;97501.09;;;16.03;93.75
22580;BME280;11456;47.030;15.396;2022-10-15T10:22:05;97498.97;;;16.56;86.71
22580;BME280;11456;47.030;15.396;2022-10-15T10:24:32;97500.44;;;16.37;88.77
22580;BME280;11456;47.030;15.396;2022-10-15T10:26:59;97504.34;;;16.14;91.60
22580;BME280;11456;47.030;15.396;2022-10-15T10:29:27;97500.81;;;15.98;91.91
22580;BME280;11456;47.030;15.396;2022-10-15T10:32:08;97497.59;;;16.10;94.17
22580;BME280;11456;47.030;15.396;2022-10-15T10:34:34;97489.19;;;16.04;90.38
22580;BME280;11456;47.030;15.396;2022-10-15T10:37:02;97501.97;;;15.60;91.99
22580;BME280;11456;47.030;15.396;2022-10-15T10:39:32;97503.47;;;15.77;93.19
22580;BME280;11456;47.030;15.396;2022-10-15T10:42:03;97490.25;;;15.89;91.81
22580;BME280;11456;47.030;15.396;2022-10-15T10:44:35;97499.97;;;16.34;88.17
22580;BME280;11456;47.030;15.396;2022-10-15T10:47:09;97490.91;;;15.76;91.98
22580;BME280;11456;47.030;15.396;2022-10-15T10:49:40;97500.97;;;16.12;91.80
22580;BME280;11456;47.030;15.396;2022-10-15T10:57:26;97499.34;;;16.53;88.71
22580;BME280;11456;47.030;15.396;2022-10-15T10:59:56;97495.81;;;16.17;89.71
22580;BME280;11456;47.030;15.396;2022-10-15T11:02:22;97487.16;;;16.28;89.12
22580;BME280;11456;47.030;15.396;2022-10-15T11:04:49;97494.28;;;16.29;89.92
22580;BME280;11456;47.030;15.396;2022-10-15T11:23:23;97492.91;;;17.24;83.32
22580;BME280;11456;47.030;15.396;2022-10-15T11:31:13;97478.84;;;17.21;82.27
22580;BME280;11456;47.030;15.396;2022-10-15T11:49:09;97471.88;;;16.27;85.39
22580;BME280;11456;47.030;15.396;2022-10-15T11:57:14;97459.06;;;15.99;86.14
22580;BME280;11456;47.030;15.396;2022-10-15T11:59:46;97461.56;;;16.79;83.07
22580;BME280;11456;47.030;15.396;2022-10-15T12:02:18;97474.41;;;16.28;85.18
22580;BME280;11456;47.030;15.396;2022-10-15T12:04:49;97467.22;;;16.21;85.44
22580;BME280;11456;47.030;15.396;2022-10-15T12:07:27;97478.16;;;16.27;86.51
22580;BME280;11456;47.030;15.396;2022-10-15T12:10:45;97474.97;;;16.38;84.24
22580;BME280;11456;47.030;15.396;2022-10-15T12:12:48;97476.81;;;16.38;84.49
22580;BME280;11456;47.030;15.396;2022-10-15T12:20:18;97469.63;;;16.52;85.98
22580;BME280;11456;47.030;15.396;2022-10-15T12:25:57;97479.63;;;16.44;83.65
22580;BME280;11456;47.030;15.396;2022-10-15T12:28:02;97468.56;;;16.67;83.12
22580;BME280;11456;47.030;15.396;2022-10-15T12:30:32;97472.84;;;16.76;81.45
22580;BME280;11456;47.030;15.396;2022-10-15T12:33:00;97474.97;;;16.81;80.50
22580;BME280;11456;47.030;15.396;2022-10-15T12:35:34;97480.47;;;16.88;80.53
22580;BME280;11456;47.030;15.396;2022-10-15T12:38:08;97487.97;;;16.86;78.47
22580;BME280;11456;47.030;15.396;2022-10-15T12:40:35;97481.69;;;16.85;79.92
22580;BME280;11456;47.030;15.396;2022-10-15T12:43:11;97476.66;;;16.82;79.07
22580;BME280;11456;47.030;15.396;2022-10-15T12:45:51;97473.88;;;16.75;80.10
22580;BME280;11456;47.030;15.396;2022-10-15T12:48:20;97477.72;;;17.09;78.90
22580;BME280;11456;47.030;15.396;2022-10-15T12:50:47;97469.47;;;16.74;79.01
22580;BME280;11456;47.030;15.396;2022-10-15T12:56:33;97474.56;;;16.84;79.63
22580;BME280;11456;47.030;15.396;2022-10-15T12:58:54;97471.38;;;17.02;79.75
22580;BME280;11456;47.030;15.396;2022-10-15T13:11:31;97464.34;;;17.14;77.36
22580;BME280;11456;47.030;15.396;2022-10-15T13:14:01;97466.53;;;17.59;78.22
22580;BME280;11456;47.030;15.396;2022-10-15T13:16:28;97465.13;;;17.63;75.48
22580;BME280;11456;47.030;15.396;2022-10-15T13:18:56;97465.81;;;17.44;74.25
22580;BME280;11456;47.030;15.396;2022-10-15T13:21:50;97467.06;;;17.48;75.61
22580;BME280;11456;47.030;15.396;2022-10-15T13:24:19;97470.78;;;17.34;74.99
22580;BME280;11456;47.030;15.396;2022-10-15T13:29:34;97481.00;;;17.04;75.41
22580;BME280;11456;47.030;15.396;2022-10-15T13:32:01;97479.94;;;17.27;76.81
22580;BME280;11456;47.030;15.396;2022-10-15T13:34:29;97479.81;;;16.86;77.64
22580;BME280;11456;47.030;15.396;2022-10-15T13:36:57;97486.16;;;16.71;78.55
22580;BME280;11456;47.030;15.396;2022-10-15T13:39:29;97475.94;;;16.95;78.44
22580;BME280;11456;47.030;15.396;2022-10-15T13:42:15;97481.03;;;17.32;77.69
22580;BME280;11456;47.030;15.396;2022-10-15T13:44:42;97483.69;;;17.53;76.43
22580;BME280;11456;47.030;15.396;2022-10-15T13:47:26;97483.47;;;17.89;76.18
22580;BME280;11456;47.030;15.396;2022-10-15T13:52:41;97477.53;;;18.27;75.56
22580;BME280;11456;47.030;15.396;2022-10-15T13:55:13;97482.78;;;17.81;76.12
22580;BME280;11456;47.030;15.396;2022-10-15T13:57:43;97491.19;;;17.79;76.81
22580;BME280;11456;47.030;15.396;2022-10-15T14:00:19;97489.94;;;17.47;76.10
22580;BME280;11456;47.030;15.396;2022-10-15T14:03:04;97483.41;;;17.76;75.90
22580;BME280;11456;47.030;15.396;2022-10-15T14:05:31;97485.75;;;17.79;73.79
22580;BME280;11456;47.030;15.396;2022-10-15T14:07:58;97492.44;;;17.77;74.83
22580;BME280;11456;47.030;15.396;2022-10-15T14:10:24;97486.00;;;17.91;72.02
22580;BME280;11456;47.030;15.396;2022-10-15T14:12:51;97484.16;;;17.98;69.72
22580;BME280;11456;47.030;15.396;2022-10-15T14:15:40;97482.91;;;18.07;70.54
22580;BME280;11456;47.030;15.396;2022-10-15T14:18:07;97485.47;;;18.15;70.19
22580;BME280;11456;47.030;15.396;2022-10-15T14:20:34;97484.47;;;17.82;70.69
22580;BME280;11456;47.030;15.396;2022-10-15T14:23:01;97480.16;;;17.59;71.57
22580;BME280;11456;47.030;15.396;2022-10-15T14:25:28;97484.22;;;17.42;72.18
22580;BME280;11456;47.030;15.396;2022-10-15T14:27:54;97484.31;;;17.55;71.84
22580;BME280;11456;47.030;15.396;2022-10-15T14:30:23;97481.84;;;17.60;71.38
22580;BME280;11456;47.030;15.396;2022-10-15T14:32:52;97481.34;;;17.50;70.49
22580;BME280;11456;47.030;15.396;2022-10-15T14:35:29;97478.38;;;17.80;72.32
22580;BME280;11456;47.030;15.396;2022-10-15T14:38:04;97473.97;;;17.16;71.90
22580;BME280;11456;47.030;15.396;2022-10-15T14:40:30;97461.84;;;17.81;69.75
22580;BME280;11456;47.030;15.396;2022-10-15T14:43:02;97483.75;;;17.32;72.38
22580;BME280;11456;47.030;15.396;2022-10-15T14:45:29;97484.41;;;17.34;73.24
22580;BME280;11456;47.030;15.396;2022-10-15T14:47:57;97480.00;;;17.33;73.17
22580;BME280;11456;47.030;15.396;2022-10-15T14:50:26;97484.22;;;17.42;72.92
22580;BME280;11456;47.030;15.396;2022-10-15T14:52:54;97478.19;;;17.19;72.86
22580;BME280;11456;47.030;15.396;2022-10-15T14:57:49;97482.75;;;17.12;76.58
22580;BME280;11456;47.030;15.396;2022-10-15T15:00:21;97488.88;;;16.93;77.28
22580;BME280;11456;47.030;15.396;2022-10-15T15:02:51;97491.22;;;16.74;78.08
22580;BME280;11456;47.030;15.396;2022-10-15T15:05:20;97483.44;;;16.93;77.71
22580;BME280;11456;47.030;15.396;2022-10-15T15:07:47;97491.44;;;17.29;76.01